Sturdies Bay, Canada
Current Conditions -  °F | °C
As of 6:00 PM on Saturday 22 Nov 2014 (Local Time) from CYYJ Reporting Station
Broken Clouds Broken Clouds  
Wind Chill: 40°   Ceiling: 25000
Heat Index: 45°   Visibility: 30mi
Dew Point: 37°   Wind: 9mph
Humidity: 76%   Direction: 250°WSW
Pressure: 29.97"   Gusts: NA
Location:  48.88°N, 123.32°W
Report Text: CYYJ 230200Z 25008KT 30SM FEW095 BKN250 07/03 A2997 RMK AC1CI4 SLP148
Loading
Personal Weather Stations






























Interactive Weather Map New forecast layout! Learn more

10-Day Weather Forecast

Advertisements
Track Severe Weather on mobile